May 23, 2022

Time Code Weather Temp. Visibility Clouds Wind METAR/SPECI
9:50 am
V
64 °F 6¼ mi+ - Var   Var 2 kt METAR EDSB 230750Z VRB02KT 9999 FEW044 18/14 Q1005
9:20 am
V
64 °F 6¼ mi+ - Var   Var 2 kt METAR EDSB 230720Z VRB02KT 9999 FEW038 18/14 Q1005
8:50 am
V
61 °F 6¼ mi+ - Var   Var 2 kt METAR EDSB 230650Z VRB02KT 9999 VCSH FEW022 16/14 Q1006
8:20 am
V
61 °F 6¼ mi+ - 290°   290° 5 kt METAR EDSB 230620Z 29005KT 250V330 9999 -RA FEW045 16/14 Q1005
7:50 am
V
59 °F 6¼ mi+ - 300°   300° 7 kt METAR EDSB 230550Z 30007KT 9999 -RA FEW028 15/14 Q1005
7:20 am
V
59 °F 6¼ mi+ - 040°   040° 3 kt METAR EDSB 230520Z 04003KT 320V090 9999 -RA SCT037 15/13 Q1005
6:50 am
V
59 °F 6¼ mi+ - 050°   050° 10 kt METAR EDSB 230450Z 05010KT 9999 -RA FEW045 15/13 Q1006
6:20 am
V
57 °F 6¼ mi+ - 130°   130° 6 kt METAR EDSB 230420Z 13006KT 9999 FEW040 14/13 Q1008
5:50 am
M
57 °F 4⅜ mi 4,500 ft 160°   160° 10 kt METAR EDSB 230350Z 16010KT 7000 -RA FEW040 BKN045CB OVC058 14/13 Q1009
5:20 am
M
57 °F 4⅜ mi 6,500 ft 280°   280° 7 kt METAR EDSB 230320Z 28007KT 230V330 7000 -RA VCTS FEW019 BKN065CB 14/13 Q1008 RETSRA
4:50 am
V
55 °F 6¼ mi+ - Var   Var 2 kt METAR EDSB 230250Z VRB02KT CAVOK 13/11 Q1006
4:20 am
V
57 °F 6¼ mi+ - Var   Var 2 kt METAR EDSB 230220Z AUTO VRB02KT 9999 FEW140/// SCT160/// 14/11 Q1006
3:50 am
V
57 °F 6¼ mi+ - 320°   320° 2 kt METAR EDSB 230150Z AUTO 32002KT 9999 NCD 14/11 Q1006
3:20 am
V
55 °F 6¼ mi+ - Var   Var 1 kt METAR EDSB 230120Z AUTO VRB01KT 9999 NCD 13/11 Q1006
2:50 am
V
55 °F 6¼ mi+ - Var   Var 1 kt METAR EDSB 230050Z AUTO VRB01KT 9999 NCD 13/09 Q1006
2:20 am
V
59 °F 6¼ mi+ - 340°   340° 2 kt METAR EDSB 230020Z AUTO 34002KT 9999 FEW160/// 15/11 Q1007
1:50 am
V
57 °F 6¼ mi+ - 320°   320° 2 kt METAR EDSB 222350Z AUTO 32002KT 9999 FEW160/// 14/10 Q1008
1:20 am
V
63 °F 6¼ mi+ - 010°   010° 3 kt METAR EDSB 222320Z AUTO 01003KT 9999 NCD 17/10 Q1008
12:50 am
V
61 °F 6¼ mi+ - 010°   010° 5 kt METAR EDSB 222250Z AUTO 01005KT 9999 NCD 16/10 Q1008
12:20 am
V
61 °F 6¼ mi+ - 020°   020° 5 kt METAR EDSB 222220Z AUTO 02005KT 9999 FEW130/// 16/10 Q1008

May 22, 2022

Time Code Weather Temp. Visibility Clouds Wind METAR/SPECI
11:50 pm
V
63 °F 6¼ mi+ - 020°   020° 7 kt METAR EDSB 222150Z AUTO 02007KT 9999 FEW130/// 17/10 Q1009
11:20 pm
V
63 °F 6¼ mi+ - 020°   020° 6 kt METAR EDSB 222120Z 02006KT CAVOK 17/10 Q1009
10:50 pm
V
66 °F 6¼ mi+ - 020°   020° 7 kt METAR EDSB 222050Z 02007KT CAVOK 19/10 Q1009
10:20 pm
V
68 °F 6¼ mi+ - 020°   020° 7 kt METAR EDSB 222020Z 02007KT CAVOK 20/10 Q1010
9:50 pm
V
68 °F 6¼ mi+ - 030°   030° 7 kt METAR EDSB 221950Z 03007KT CAVOK 20/10 Q1010
9:20 pm
V
68 °F 6¼ mi+ - 030°   030° 7 kt METAR EDSB 221920Z 03007KT CAVOK 20/10 Q1009
8:50 pm
V
70 °F 6¼ mi+ - 030°   030° 7 kt METAR EDSB 221850Z 03007KT CAVOK 21/10 Q1010
8:20 pm
V
72 °F 6¼ mi+ - 040°   040° 7 kt METAR EDSB 221820Z 04007KT CAVOK 22/10 Q1010
7:50 pm
V
72 °F 6¼ mi+ - 040°   040° 9 kt METAR EDSB 221750Z 04009KT 9999 VCSH FEW49TCU 22/09 Q1010
7:20 pm
V
72 °F 6¼ mi+ - 010°   010° 6 kt METAR EDSB 221720Z 01006KT CAVOK 22/09 Q1011
6:50 pm
V
73 °F 6¼ mi+ - 060°   060° 5 kt METAR EDSB 221650Z 06005KT 010V100 CAVOK 23/09 Q1011
6:20 pm
V
72 °F 6¼ mi+ - 030°   030° 8 kt METAR EDSB 221620Z 03008KT CAVOK 22/10 Q1011
5:50 pm
V
75 °F 6¼ mi+ - 070°   070° 7 kt METAR EDSB 221550Z 07007KT 030V100 CAVOK 24/07 Q1011
5:20 pm
V
75 °F 6¼ mi+ - 060°   060° 5 kt METAR EDSB 221520Z 06005KT 030V090 CAVOK 24/08 Q1012
4:50 pm
V
73 °F 6¼ mi+ - 010°   010° 3 kt METAR EDSB 221450Z 01003KT CAVOK 23/09 Q1013
4:20 pm
V
75 °F 6¼ mi+ - 010°   010° 5 kt METAR EDSB 221420Z 01005KT 340V050 CAVOK 24/08 Q1013
3:50 pm
V
75 °F 6¼ mi+ - 360°   360° 6 kt METAR EDSB 221350Z 36006KT CAVOK 24/07 Q1013
3:20 pm
V
75 °F 6¼ mi+ - 310°   310° 4 kt METAR EDSB 221320Z 31004KT 270V350 CAVOK 24/08 Q1013
2:50 pm
V
77 °F 6¼ mi+ - 320°   320° 6 kt METAR EDSB 221250Z 32006KT 270V010 CAVOK 25/08 Q1013
2:20 pm
V
75 °F 6¼ mi+ - 360°   360° 3 kt METAR EDSB 221220Z 36003KT 280V080 CAVOK 24/08 Q1013
1:50 pm
V
73 °F 6¼ mi+ - Var   Var 4 kt METAR EDSB 221150Z VRB04KT CAVOK 23/10 Q1014
1:20 pm
V
73 °F 6¼ mi+ - Var   Var 4 kt METAR EDSB 221120Z VRB04KT CAVOK 23/09 Q1014
12:50 pm
V
73 °F 6¼ mi+ - 330°   330° 5 kt METAR EDSB 221050Z 33005KT 290V020 CAVOK 23/10 Q1014
12:20 pm
V
72 °F 6¼ mi+ - 340°   340° 4 kt METAR EDSB 221020Z 34004KT 290V010 CAVOK 22/11 Q1015
11:50 am
V
72 °F 6¼ mi+ - 350°   350° 5 kt METAR EDSB 220950Z 35005KT 300V060 CAVOK 22/10 Q1015
11:20 am
V
68 °F 6¼ mi+ - Var   Var 3 kt METAR EDSB 220920Z VRB03KT CAVOK 20/08 Q1016
10:50 am
V
66 °F 6¼ mi+ - 330°   330° 3 kt METAR EDSB 220850Z 33003KT 270V060 CAVOK 19/11 Q1016
10:20 am
V
66 °F 6¼ mi+ - Var   Var 3 kt METAR EDSB 220820Z VRB03KT CAVOK 19/12 Q1016
9:50 am
V
64 °F 6¼ mi+ - 030°   030° 3 kt METAR EDSB 220750Z 03003KT 320V100 CAVOK 18/11 Q1017
9:20 am
V
61 °F 6¼ mi+ - Var   Var 2 kt METAR EDSB 220720Z VRB02KT CAVOK 16/11 Q1017
8:50 am
V
59 °F 6¼ mi+ - Var   Var 2 kt METAR EDSB 220650Z VRB02KT CAVOK 15/11 Q1017
8:20 am
V
57 °F 6¼ mi+ - Var   000° 0 kt METAR EDSB 220620Z 00000KT CAVOK 14/12 Q1017
7:50 am
V
55 °F 6¼ mi+ - Var   000° 0 kt METAR EDSB 220550Z 00000KT CAVOK 13/11 Q1017
7:20 am
V
55 °F 6¼ mi+ - Var   000° 0 kt METAR EDSB 220520Z 00000KT CAVOK 13/12 Q1017
6:50 am
V
50 °F 6¼ mi+ - 350°   350° 2 kt METAR EDSB 220450Z 35002KT CAVOK 10/09 Q1017
6:20 am
V
48 °F 6¼ mi+ - 180°   180° 2 kt METAR EDSB 220420Z 18002KT CAVOK 09/08 Q1017
5:50 am
V
48 °F 6¼ mi+ - Var   000° 0 kt METAR EDSB 220350Z 00000KT CAVOK 09/08 Q1017
5:20 am
V
48 °F 6¼ mi+ - Var   000° 0 kt METAR EDSB 220320Z 00000KT CAVOK 09/09 Q1018
4:50 am
V
48 °F 6¼ mi+ - 320°   320° 1 kt METAR EDSB 220250Z 32001KT CAVOK 09/09 Q1018
4:20 am
V
50 °F 6¼ mi+ - Var   Var 1 kt METAR EDSB 220220Z AUTO VRB01KT 9999 // FEW250/// 10/08 Q1018
3:50 am
I
50 °F 2½ mi - 210°   210° 2 kt METAR EDSB 220150Z AUTO 21002KT 9000 4000 // NCD 10/08 Q1018
3:20 am
V
48 °F 5⅝ mi - 300°   300° 2 kt METAR EDSB 220120Z AUTO 30002KT 9000 // NCD 09/08 Q1018
2:50 am
V
50 °F 6¼ mi+ - 020°   020° 1 kt METAR EDSB 220050Z AUTO 02001KT 9999 // NCD 10/09 Q1018
2:20 am
V
50 °F 6¼ mi+ - Var   000° 0 kt METAR EDSB 220020Z AUTO 00000KT 9999 // NCD 10/09 Q1018
1:50 am
V
50 °F 6¼ mi+ - Var   000° 0 kt METAR EDSB 212350Z AUTO 00000KT 9999 // NCD 10/09 Q1019
1:20 am
V
52 °F 6¼ mi+ - Var   Var 1 kt METAR EDSB 212320Z AUTO VRB01KT 9999 // NCD 11/09 Q1019
12:50 am
V
54 °F 6¼ mi+ - Var   000° 0 kt METAR EDSB 212250Z AUTO 00000KT 9999 // NCD 12/10 Q1019
12:20 am
V
54 °F 6¼ mi+ - Var   000° 0 kt METAR EDSB 212220Z AUTO 00000KT 9999 // NCD 12/10 Q1019

May 21, 2022

Time Code Weather Temp. Visibility Clouds Wind METAR/SPECI
11:50 pm
V
55 °F 6¼ mi+ - Var   000° 0 kt METAR EDSB 212150Z AUTO 00000KT 9999 // NCD 13/10 Q1019
11:20 pm
V
57 °F 6¼ mi+ - Var   Var 1 kt METAR EDSB 212120Z AUTO VRB01KT 9999 // NCD 14/10 Q1019
10:50 pm
V
57 °F 6¼ mi+ - Var   000° 0 kt METAR EDSB 212050Z 00000KT CAVOK 14/10 Q1019
10:20 pm
V
57 °F 6¼ mi+ - Var   Var 2 kt METAR EDSB 212020Z VRB02KT CAVOK 14/09 Q1019
9:50 pm
V
63 °F 6¼ mi+ - Var   Var 1 kt METAR EDSB 211950Z VRB01KT CAVOK 17/10 Q1019
9:20 pm
V
64 °F 6¼ mi+ - Var   Var 1 kt METAR EDSB 211920Z VRB01KT CAVOK 18/10 Q1019
8:50 pm
V
66 °F 6¼ mi+ - Var   Var 2 kt METAR EDSB 211850Z VRB02KT CAVOK 19/10 Q1019
8:20 pm
V
70 °F 6¼ mi+ - Var   Var 2 kt METAR EDSB 211820Z VRB02KT CAVOK 21/10 Q1019
7:50 pm
V
70 °F 6¼ mi+ - 350°   350° 4 kt METAR EDSB 211750Z 35004KT 310V010 CAVOK 21/09 Q1019
7:20 pm
V
72 °F 6¼ mi+ - 300°   300° 3 kt METAR EDSB 211720Z 30003KT 220V010 CAVOK 22/09 Q1020
6:50 pm
V
72 °F 6¼ mi+ - 290°   290° 4 kt METAR EDSB 211650Z 29004KT 240V330 CAVOK 22/09 Q1020
6:20 pm
V
72 °F 6¼ mi+ - 320°   320° 4 kt METAR EDSB 211620Z 32004KT 280V010 CAVOK 22/09 Q1020
5:50 pm
V
73 °F 6¼ mi+ - 320°   320° 5 kt METAR EDSB 211550Z 32005KT 260V010 CAVOK 23/09 Q1020
5:20 pm
V
72 °F 6¼ mi+ - 300°   300° 5 kt METAR EDSB 211520Z 30005KT 240V350 CAVOK 22/09 Q1021
4:50 pm
V
72 °F 6¼ mi+ - 310°   310° 5 kt METAR EDSB 211450Z 31005KT 270V360 CAVOK 22/09 Q1021
4:20 pm
V
73 °F 6¼ mi+ - 270°   270° 6 kt METAR EDSB 211420Z 27006KT 210V350 CAVOK 23/09 Q1022
3:50 pm
V
73 °F 6¼ mi+ - 300°   300° 4 kt METAR EDSB 211350Z 30004KT 210V010 CAVOK 23/08 Q1022
3:20 pm
V
72 °F 6¼ mi+ - 260°   260° 5 kt METAR EDSB 211320Z 26005KT 220V020 CAVOK 22/08 Q1022
2:50 pm
V
72 °F 6¼ mi+ - 300°   300° 5 kt METAR EDSB 211250Z 30005KT 250V340 CAVOK 22/08 Q1022
2:20 pm
V
72 °F 6¼ mi+ - Var   Var 6 kt METAR EDSB 211220Z VRB06KT 9999 FEW051 22/08 Q1023
1:50 pm
V
70 °F 6¼ mi+ - Var   Var 3 kt METAR EDSB 211150Z VRB03KT CAVOK 21/08 Q1023
1:20 pm
V
70 °F 6¼ mi+ - 270°   270° 6 kt METAR EDSB 211120Z 27006KT 220V330 CAVOK 21/09 Q1023
12:50 pm
V
68 °F 6¼ mi+ - 270°   270° 6 kt METAR EDSB 211050Z 27006KT 220V320 CAVOK 20/09 Q1023
12:20 pm
V
66 °F 6¼ mi+ - 260°   260° 7 kt METAR EDSB 211020Z 26007KT 210V320 CAVOK 19/09 Q1023
11:50 am
V
66 °F 6¼ mi+ - 250°   250° 7 kt METAR EDSB 210950Z 25007KT 200V280 CAVOK 19/09 Q1024
11:20 am
V
64 °F 6¼ mi+ - 270°   270° 6 kt METAR EDSB 210920Z 27006KT 210V340 CAVOK 18/10 Q1024
10:50 am
V
63 °F 6¼ mi+ - 250°   250° 5 kt METAR EDSB 210850Z 25005KT 200V340 CAVOK 17/09 Q1024
10:20 am
V
64 °F 6¼ mi+ - 280°   280° 5 kt METAR EDSB 210820Z 28005KT 230V330 CAVOK 18/09 Q1024
9:50 am
V
61 °F 6¼ mi+ - 220°   220° 7 kt METAR EDSB 210750Z 22007KT 190V290 9999 FEW027 16/09 Q1024
9:20 am
V
61 °F 6¼ mi+ - 240°   240° 6 kt METAR EDSB 210720Z 24006KT 200V280 CAVOK 16/09 Q1024
Older data

Download our app

Easy access to all aviation weather on your mobile phone and tablet.
With many features not available on the website, like offline support and a personal airport list.

We and third parties follow your internet behavior on our website with cookies. If you continue, we assume you agree with our cookie policy. Learn more